Time;durP1;ratioP1;P1;durP2;ratioP2;P2;SDS_P1;SDS_P2;PMS_P1;PMS_P2;Temp;Humidity;BMP_temperature;BMP_pressure;BME280_temperature;BME280_humidity;BME280_pressure;Samples;Min_cycle;Max_cycle;Signal;HPM_P1;HPM_P2
2023/07/14 00:05:02;;;;;;;2.38;0.50;;;;;;;19.20;45.52;97997.47;10481755;28;20060;-74
2023/07/14 00:10:30;;;;;;;3.00;0.40;;;;;;;19.13;45.82;97999.38;10468092;28;20516;-76
2023/07/14 00:15:53;;;;;;;2.17;0.43;;;;;;;19.09;46.17;98004.84;10470001;28;20076;-75
2023/07/14 00:21:16;;;;;;;5.43;0.60;;;;;;;19.02;46.26;98003.19;10481770;28;20116;-75
2023/07/14 00:26:36;;;;;;;4.77;0.40;;;;;;;19.01;46.34;98004.56;10468078;28;20139;-74
2023/07/14 00:31:57;;;;;;;2.47;0.57;;;;;;;19.00;46.19;97999.53;10456842;28;20063;-76
2023/07/14 00:37:18;;;;;;;1.25;0.30;;;;;;;18.97;46.26;98007.22;10489363;28;20530;-74
2023/07/14 00:42:39;;;;;;;1.80;0.30;;;;;;;18.98;46.01;98005.84;10474866;28;20132;-75
2023/07/14 00:48:03;;;;;;;2.28;0.28;;;;;;;18.95;46.12;98007.16;10447589;28;20115;-75
2023/07/14 00:53:33;;;;;;;1.90;0.30;;;;;;;18.95;45.70;98014.91;10462103;28;20075;-76
2023/07/14 00:58:54;;;;;;;2.88;0.40;;;;;;;18.86;45.89;98011.75;10460887;28;20551;-75
2023/07/14 01:04:15;;;;;;;2.47;0.40;;;;;;;18.81;45.92;98006.59;10460455;28;20174;-75
2023/07/14 01:09:35;;;;;;;1.27;0.20;;;;;;;18.77;45.85;98009.25;10460190;28;20068;-75
2023/07/14 01:14:57;;;;;;;2.42;0.45;;;;;;;18.78;45.76;98008.59;10474092;28;20455;-75
2023/07/14 01:20:18;;;;;;;1.83;0.40;;;;;;;18.78;45.46;98016.38;10473918;28;20166;-74
2023/07/14 01:26:02;;;;;;;3.17;0.30;;;;;;;18.78;45.54;98017.09;10459657;28;20033;-75
2023/07/14 01:31:24;;;;;;;2.55;0.40;;;;;;;18.75;45.35;98021.22;10460899;28;20517;-75
2023/07/14 01:36:48;;;;;;;2.22;0.40;;;;;;;18.73;45.31;98009.13;10474089;28;20068;-75
2023/07/14 01:42:09;;;;;;;1.00;0.35;;;;;;;18.68;45.09;98016.69;10458379;28;20115;-75
2023/07/14 01:47:30;;;;;;;1.48;0.30;;;;;;;18.66;45.02;98007.41;10472667;28;20124;-74
2023/07/14 01:52:55;;;;;;;2.05;0.40;;;;;;;18.59;45.17;98001.47;10472987;28;20465;-75
2023/07/14 01:58:22;;;;;;;2.55;0.50;;;;;;;18.45;44.93;98017.88;10458741;28;20098;-75
2023/07/14 02:03:47;;;;;;;2.03;0.40;;;;;;;18.29;45.19;98020.75;10458237;28;20190;-76
2023/07/14 02:09:17;;;;;;;0.75;0.30;;;;;;;18.21;45.44;98028.88;10445138;28;20120;-75
2023/07/14 02:14:45;;;;;;;3.90;0.55;;;;;;;18.14;45.64;98024.34;10472310;28;20045;-74
2023/07/14 02:20:10;;;;;;;1.48;0.30;;;;;;;18.11;45.60;98030.56;10471915;28;20059;-74
2023/07/14 02:25:34;;;;;;;2.47;0.50;;;;;;;17.99;45.67;98034.31;10457863;28;20554;-75
2023/07/14 02:30:59;;;;;;;4.25;0.38;;;;;;;17.93;45.84;98039.69;10457404;28;20068;-75
2023/07/14 02:36:30;;;;;;;2.97;0.40;;;;;;;17.80;46.01;98037.72;10443600;28;20146;-75
2023/07/14 02:41:53;;;;;;;3.53;0.45;;;;;;;17.67;46.02;98039.25;10471823;28;20447;-74
2023/07/14 02:47:18;;;;;;;3.10;0.50;;;;;;;17.51;46.65;98027.22;10470957;28;20044;-77
2023/07/14 02:52:40;;;;;;;2.85;0.50;;;;;;;17.52;46.54;98027.97;10457160;28;20051;-77
2023/07/14 02:58:01;;;;;;;3.35;0.50;;;;;;;17.53;46.71;98040.69;10483925;28;20072;-76
2023/07/14 03:03:22;;;;;;;1.63;0.60;;;;;;;17.55;46.96;98040.78;10483342;28;20498;-77
2023/07/14 03:08:43;;;;;;;3.17;0.70;;;;;;;17.55;46.82;98037.97;10455876;28;20072;-77
2023/07/14 03:14:05;;;;;;;2.97;0.43;;;;;;;17.56;47.28;98040.16;10441997;28;20048;-77
2023/07/14 03:19:26;;;;;;;2.55;0.73;;;;;;;17.59;47.14;98044.53;10469761;28;20137;-77
2023/07/14 03:24:48;;;;;;;3.20;0.50;;;;;;;17.58;47.32;98048.72;10468975;28;20237;-76
2023/07/14 03:30:09;;;;;;;2.92;0.50;;;;;;;17.55;47.56;98047.16;10497929;28;20049;-76
2023/07/14 03:35:30;;;;;;;3.28;0.60;;;;;;;17.56;47.60;98047.88;10496748;28;20498;-77
2023/07/14 03:40:51;;;;;;;2.22;0.50;;;;;;;17.62;47.58;98059.47;10468679;28;20082;-77
2023/07/14 03:46:11;;;;;;;1.48;0.50;;;;;;;17.67;47.45;98061.09;10468409;28;20112;-77
2023/07/14 03:51:32;;;;;;;3.47;0.50;;;;;;;17.76;47.65;98054.50;10454987;28;20056;-77
2023/07/14 03:56:53;;;;;;;2.35;0.50;;;;;;;17.81;47.72;98058.94;10497575;28;20044;-77
2023/07/14 04:02:13;;;;;;;3.28;0.43;;;;;;;17.88;47.62;98057.84;10468346;28;20593;-77
2023/07/14 04:07:37;;;;;;;2.67;0.50;;;;;;;17.98;47.83;98066.75;10486604;28;20434;-77
2023/07/14 04:12:59;;;;;;;4.22;0.57;;;;;;;18.10;47.74;98063.00;10462582;28;20150;-76
2023/07/14 04:18:19;;;;;;;1.92;0.35;;;;;;;18.18;47.65;98071.81;10462490;28;20064;-76
2023/07/14 04:23:40;;;;;;;3.47;0.82;;;;;;;18.25;47.62;98091.22;10476016;28;20066;-75
2023/07/14 04:29:05;;;;;;;2.70;1.00;;;;;;;18.37;47.66;98082.53;10462065;28;20040;-76
2023/07/14 04:34:26;;;;;;;2.85;0.60;;;;;;;18.55;47.62;98085.41;10504619;28;20070;-75
2023/07/14 04:39:47;;;;;;;5.22;0.50;;;;;;;18.80;47.64;98092.78;10475489;28;20040;-76
2023/07/14 04:45:08;;;;;;;2.97;0.60;;;;;;;18.99;47.03;98086.50;10475243;28;20080;-76
2023/07/14 04:50:28;;;;;;;2.42;0.50;;;;;;;19.31;46.91;98089.91;10475108;28;20105;-76
2023/07/14 04:55:49;;;;;;;2.03;0.45;;;;;;;19.63;46.82;98107.41;10488965;28;20158;-75
2023/07/14 05:01:11;;;;;;;4.00;0.82;;;;;;;19.91;46.06;98104.19;10460850;28;20040;-76
2023/07/14 05:06:32;;;;;;;2.25;0.60;;;;;;;20.22;45.52;98100.31;10460629;28;20098;-76
2023/07/14 05:11:52;;;;;;;2.67;0.63;;;;;;;20.58;45.27;98095.22;10503014;28;20146;-76
2023/07/14 05:17:13;;;;;;;5.90;0.82;;;;;;;20.94;44.89;98097.78;10473976;28;20111;-75
2023/07/14 05:22:34;;;;;;;5.43;0.80;;;;;;;21.39;44.10;98086.50;10487701;28;20120;-76
2023/07/14 05:27:54;;;;;;;6.78;0.80;;;;;;;21.65;43.16;98080.16;10473582;28;20071;-75
2023/07/14 05:33:16;;;;;;;2.30;0.60;;;;;;;22.06;42.96;98086.97;10459593;28;20494;-76
2023/07/14 05:38:37;;;;;;;4.20;0.80;;;;;;;22.45;41.35;98085.94;10487223;28;20049;-75
2023/07/14 05:43:58;;;;;;;1.98;0.70;;;;;;;22.48;39.96;98084.56;10458928;28;20040;-75
2023/07/14 05:49:19;;;;;;;3.67;1.00;;;;;;;22.86;39.86;98082.00;10458918;28;20068;-75
2023/07/14 05:54:39;;;;;;;3.75;0.85;;;;;;;23.20;38.68;98079.28;10486418;28;20143;-75
2023/07/14 06:00:00;;;;;;;3.63;0.70;;;;;;;23.43;38.25;98078.34;10486138;28;20040;-76
2023/07/14 06:05:32;;;;;;;6.78;0.93;;;;;;;24.10;37.68;98081.91;10474721;28;20498;-76
2023/07/14 06:10:53;;;;;;;3.65;0.90;;;;;;;24.59;36.51;98088.53;10471734;28;20185;-75
2023/07/14 06:16:14;;;;;;;4.43;0.70;;;;;;;24.72;35.27;98086.63;10457705;28;20044;-76
2023/07/14 06:21:35;;;;;;;2.83;0.77;;;;;;;25.08;34.96;98083.66;10485417;28;20045;-76
2023/07/14 06:26:56;;;;;;;6.38;0.90;;;;;;;25.66;34.25;98080.19;10471248;28;20047;-76
2023/07/14 06:32:17;;;;;;;8.18;1.05;;;;;;;26.53;33.43;98084.09;10498861;28;20041;-76
2023/07/14 06:37:38;;;;;;;5.82;0.73;;;;;;;26.78;31.75;98090.78;10484657;28;20037;-76
2023/07/14 06:43:00;;;;;;;3.33;0.70;;;;;;;27.09;31.05;98065.28;10456849;28;20071;-76
2023/07/14 06:48:22;;;;;;;7.18;0.70;;;;;;;27.52;30.88;98077.75;10484494;28;20067;-75
2023/07/14 06:53:43;;;;;;;3.00;0.57;;;;;;;28.46;30.52;98066.63;10470030;28;20051;-76
2023/07/14 06:59:04;;;;;;;7.30;1.20;;;;;;;28.32;28.86;98075.25;10483916;28;20032;-76
2023/07/14 07:04:26;;;;;;;3.40;0.57;;;;;;;28.49;28.68;98074.56;10483738;28;20060;-76
2023/07/14 07:09:47;;;;;;;15.50;2.17;;;;;;;28.60;28.49;98075.28;10455745;28;20112;-76
2023/07/14 07:15:08;;;;;;;5.13;0.85;;;;;;;28.58;28.11;98075.28;10455467;28;20481;-75
2023/07/14 07:20:29;;;;;;;3.72;0.65;;;;;;;28.69;28.20;98067.41;10442142;28;20048;-76
2023/07/14 07:25:52;;;;;;;5.85;1.00;;;;;;;29.25;27.77;98075.31;10468771;28;20047;-75
2023/07/14 07:31:14;;;;;;;3.25;0.65;;;;;;;29.96;27.35;98074.41;10468732;28;20048;-76
2023/07/14 07:36:36;;;;;;;4.55;0.90;;;;;;;31.15;26.57;98068.59;10455732;28;20049;-75
2023/07/14 07:41:57;;;;;;;4.70;1.30;;;;;;;31.85;26.06;98058.53;10468955;28;20044;-76
2023/07/14 07:47:18;;;;;;;2.40;0.73;;;;;;;31.09;24.11;98054.97;10468812;28;20045;-75
2023/07/14 07:52:40;;;;;;;1.38;0.70;;;;;;;30.52;24.39;98060.44;10468607;28;20048;-76
2023/07/14 07:58:02;;;;;;;1.95;0.60;;;;;;;30.88;24.22;98048.66;10482488;28;20098;-75
2023/07/14 08:03:23;;;;;;;5.28;0.93;;;;;;;31.15;23.71;98054.19;10481805;28;20102;-75
2023/07/14 08:08:45;;;;;;;4.13;0.80;;;;;;;30.11;24.81;98055.66;10496966;28;20044;-75
2023/07/14 08:14:10;;;;;;;4.63;0.70;;;;;;;30.88;24.70;98042.88;10468129;28;20045;-76
2023/07/14 08:19:32;;;;;;;6.28;0.90;;;;;;;31.37;23.25;98047.53;10454726;28;20048;-75
2023/07/14 08:24:55;;;;;;;3.20;0.70;;;;;;;31.12;23.15;98032.59;10481651;28;20463;-76
2023/07/14 08:30:17;;;;;;;3.15;0.60;;;;;;;30.98;23.20;98039.19;10453762;28;20052;-75
2023/07/14 08:35:38;;;;;;;5.22;0.80;;;;;;;31.81;22.71;98034.75;10481431;28;20048;-75
2023/07/14 08:41:24;;;;;;;3.28;0.70;;;;;;;32.36;22.08;98031.88;10481603;28;20053;-78
2023/07/14 08:47:15;;;;;;;2.92;0.57;;;;;;;32.87;21.67;98022.41;10496299;28;20074;-77
2023/07/14 08:52:37;;;;;;;3.67;0.70;;;;;;;33.25;21.18;98021.00;10471456;28;20560;-77
2023/07/14 08:58:16;;;;;;;4.22;0.70;;;;;;;33.75;19.97;98003.41;10474705;28;20394;-77
2023/07/14 09:03:40;;;;;;;3.03;0.55;;;;;;;33.27;20.18;98020.97;10474960;28;20057;-77
2023/07/14 09:09:03;;;;;;;6.25;0.60;;;;;;;34.68;19.76;98010.00;10502979;28;20051;-77
2023/07/14 09:14:31;;;;;;;2.97;0.60;;;;;;;35.88;18.60;98006.09;10488251;28;20052;-77
2023/07/14 09:20:06;;;;;;;5.78;0.88;;;;;;;36.92;17.47;97997.72;10474134;28;20512;-76
2023/07/14 09:25:39;;;;;;;2.97;0.60;;;;;;;37.32;16.79;98000.03;10487473;28;20044;-76
2023/07/14 09:31:05;;;;;;;4.88;0.50;;;;;;;35.98;16.13;98002.19;10474683;28;20059;-77
2023/07/14 09:36:26;;;;;;;2.85;0.50;;;;;;;36.02;16.56;97993.34;10474297;28;20082;-77
2023/07/14 09:41:50;;;;;;;4.20;0.50;;;;;;;35.93;16.37;97987.09;10445141;28;20047;-77
2023/07/14 09:47:12;;;;;;;1.40;0.52;;;;;;;36.69;15.88;97986.13;10459641;28;20071;-76
2023/07/14 09:52:33;;;;;;;2.85;0.50;;;;;;;35.73;14.75;97981.84;10458869;28;20037;-76
2023/07/14 09:57:54;;;;;;;2.15;0.57;;;;;;;36.35;14.85;97973.44;10458648;28;20051;-76
2023/07/14 10:03:39;;;;;;;2.50;0.73;;;;;;;35.19;15.69;97981.91;10463403;28;20060;-76
2023/07/14 10:09:13;;;;;;;1.88;0.50;;;;;;;35.25;15.56;97970.13;10446807;28;20045;-77
2023/07/14 10:14:35;;;;;;;4.45;0.40;;;;;;;36.10;15.65;97967.69;10473576;28;20072;-77
2023/07/14 10:19:56;;;;;;;1.45;0.50;;;;;;;35.86;15.10;97968.38;10457715;28;20071;-77
2023/07/14 10:25:19;;;;;;;2.75;0.32;;;;;;;36.45;15.53;97954.25;10471468;28;20391;-76
2023/07/14 10:31:00;;;;;;;1.70;0.60;;;;;;;37.34;15.01;97950.47;10457159;28;20048;-76
2023/07/14 10:36:23;;;;;;;2.25;0.40;;;;;;;37.83;14.37;97937.00;10456771;28;20391;-76
2023/07/14 10:41:45;;;;;;;2.15;0.60;;;;;;;37.29;14.10;97949.19;10443395;28;20483;-77
2023/07/14 10:47:34;;;;;;;1.75;0.60;;;;;;;35.72;15.08;97934.00;10470787;28;20045;-76
2023/07/14 10:53:06;;;;;;;2.15;0.50;;;;;;;35.51;15.62;97925.88;10473058;28;20045;-77
2023/07/14 10:58:44;;;;;;;1.65;0.60;;;;;;;35.61;15.33;97913.25;10471298;28;20045;-76
2023/07/14 11:04:12;;;;;;;3.55;0.40;;;;;;;34.51;16.32;97924.25;10483592;28;20498;-77
2023/07/14 11:09:33;;;;;;;3.20;0.60;;;;;;;33.36;17.23;97905.13;10455420;28;20082;-76
2023/07/14 11:15:03;;;;;;;1.70;0.52;;;;;;;33.41;17.55;97900.69;10469343;28;20111;-76
2023/07/14 11:20:41;;;;;;;3.88;0.70;;;;;;;33.91;17.36;97907.56;10483076;28;20045;-76
2023/07/14 11:26:30;;;;;;;5.07;0.52;;;;;;;34.60;16.93;97900.09;10468928;28;20111;-76
2023/07/14 11:31:52;;;;;;;2.13;0.60;;;;;;;34.95;16.97;97890.50;10468652;28;20048;-76
2023/07/14 11:37:43;;;;;;;3.17;0.50;;;;;;;34.12;16.94;97884.63;10482844;28;20044;-76
2023/07/14 11:43:05;;;;;;;;;;;;;;;33.76;17.03;97869.50;10468803;28;20044;-76
2023/07/14 11:48:34;;;;;;;2.33;0.93;;;;;;;34.02;17.46;97856.63;10482562;28;19921;-77
2023/07/14 11:54:03;;;;;;;1.85;0.52;;;;;;;33.78;17.37;97863.69;10482104;28;20475;-76
2023/07/14 11:59:29;;;;;;;5.53;0.60;;;;;;;33.25;17.74;97855.44;10482192;28;20041;-76
2023/07/14 12:05:18;;;;;;;3.45;0.60;;;;;;;33.62;17.89;97843.09;10454265;28;20056;-76
2023/07/14 12:10:40;;;;;;;2.20;0.60;;;;;;;34.59;16.66;97834.91;10468751;28;20487;-76
2023/07/14 12:16:02;;;;;;;2.67;0.70;;;;;;;33.79;17.09;97841.97;10481609;28;20052;-76
2023/07/14 12:21:41;;;;;;;3.00;0.90;;;;;;;33.13;17.82;97833.28;10481867;28;20064;-76
2023/07/14 12:27:27;;;;;;;1.40;0.70;;;;;;;33.69;17.21;97824.84;10443736;28;20047;-76
2023/07/14 12:32:50;;;;;;;3.03;0.50;;;;;;;33.68;17.11;97816.88;10448458;28;20051;-76
2023/07/14 12:38:15;;;;;;;3.20;0.50;;;;;;;34.07;17.10;97811.63;10475603;28;20040;-77
2023/07/14 12:43:49;;;;;;;1.58;0.57;;;;;;;34.17;16.50;97796.16;10461613;28;20040;-76
2023/07/14 12:49:40;;;;;;;3.05;0.60;;;;;;;33.75;16.63;97792.84;10462883;28;20060;-77
2023/07/14 12:55:10;;;;;;;1.65;0.50;;;;;;;33.53;17.00;97779.63;10492672;28;20040;-77
2023/07/14 13:00:32;;;;;;;4.43;0.65;;;;;;;33.25;16.82;97786.75;10475453;28;20036;-76
2023/07/14 13:05:53;;;;;;;2.72;0.50;;;;;;;31.88;17.41;97779.97;10488353;28;20122;-76
2023/07/14 13:11:25;;;;;;;;;;;;;;;31.61;18.42;97776.06;10461508;28;20107;-77
2023/07/14 13:16:50;;;;;;;2.08;0.65;;;;;;;31.38;18.32;97772.13;10475263;28;19920;-74
2023/07/14 13:22:22;;;;;;;3.10;0.63;;;;;;;31.39;18.19;97759.81;10487777;28;20049;-74
2023/07/14 13:27:43;;;;;;;1.83;0.50;;;;;;;31.03;18.84;97755.97;10487786;28;20045;-77
2023/07/14 13:33:12;;;;;;;2.15;0.60;;;;;;;31.46;18.25;97751.78;10487468;28;20040;-76
2023/07/14 13:38:33;;;;;;;2.03;0.60;;;;;;;31.63;18.48;97750.06;10473149;28;20044;-76
2023/07/14 13:44:31;;;;;;;3.27;0.80;;;;;;;31.83;18.14;97751.94;10459077;28;20041;-77
2023/07/14 13:49:53;;;;;;;2.17;0.50;;;;;;;31.72;18.14;97748.47;10501733;28;20044;-76
2023/07/14 13:55:14;;;;;;;1.98;0.55;;;;;;;31.66;18.00;97733.47;10472987;28;20048;-77
2023/07/14 14:00:35;;;;;;;;;;;;;;;32.05;17.89;97713.31;10486808;28;20044;-76
2023/07/14 14:05:56;;;;;;;3.92;0.52;;;;;;;31.96;18.49;97701.19;10485936;28;19920;-76
2023/07/14 14:11:17;;;;;;;3.07;0.60;;;;;;;31.92;18.30;97698.38;10457947;28;20036;-76
2023/07/14 14:16:38;;;;;;;1.67;0.70;;;;;;;31.52;18.30;97696.88;10455618;28;20059;-76
2023/07/14 14:21:59;;;;;;;2.97;0.80;;;;;;;31.36;18.55;97694.25;10472266;28;20625;-77
2023/07/14 14:27:20;;;;;;;4.68;0.52;;;;;;;30.82;18.86;97694.31;10470974;28;20429;-76
2023/07/14 14:32:42;;;;;;;1.87;0.73;;;;;;;30.31;19.19;97679.84;10457049;28;20032;-76
2023/07/14 14:38:16;;;;;;;;;;;;;;;30.55;19.94;97684.56;10443566;28;20436;-76
2023/07/14 14:43:57;;;;;;;2.45;0.60;;;;;;;30.89;19.62;97672.63;10487287;28;19924;-76
2023/07/14 14:49:20;;;;;;;2.63;0.82;;;;;;;31.02;19.51;97667.38;10470023;28;20033;-76
2023/07/14 14:54:41;;;;;;;1.75;0.50;;;;;;;31.09;19.33;97665.13;10456588;28;20044;-76
2023/07/14 15:00:05;;;;;;;4.47;0.70;;;;;;;31.14;19.21;97663.59;10498901;28;20418;-76
2023/07/14 15:05:27;;;;;;;2.15;0.50;;;;;;;31.02;19.74;97661.63;10469708;28;20052;-76
2023/07/14 15:10:52;;;;;;;2.23;0.70;;;;;;;31.03;19.56;97651.50;10469508;28;20045;-76
2023/07/14 15:16:14;;;;;;;2.50;0.90;;;;;;;31.27;19.45;97641.81;10469681;28;20045;-76
2023/07/14 15:21:35;;;;;;;;;;;;;;;31.21;19.65;97639.00;10456109;28;20037;-76
2023/07/14 15:26:59;;;;;;;3.87;1.00;;;;;;;31.11;19.74;97636.28;10482942;28;20034;-76
2023/07/14 15:32:20;;;;;;;1.63;0.63;;;;;;;31.29;19.50;97638.88;10497664;28;20656;-76
2023/07/14 15:37:41;;;;;;;1.40;0.60;;;;;;;31.31;19.18;97624.44;10455209;28;20498;-77
2023/07/14 15:43:21;;;;;;;1.70;0.55;;;;;;;31.30;19.27;97623.72;10455807;28;20036;-76
2023/07/14 15:48:50;;;;;;;3.33;0.60;;;;;;;31.31;19.76;97627.31;10468343;28;20036;-76
2023/07/14 15:54:31;;;;;;;5.53;0.68;;;;;;;31.03;19.62;97611.16;10469502;28;20041;-76
2023/07/14 15:59:53;;;;;;;2.15;0.60;;;;;;;30.75;19.95;97600.78;10468846;28;20055;-76
2023/07/14 16:05:18;;;;;;;3.35;0.60;;;;;;;30.36;20.56;97609.94;10447770;28;20064;-76
2023/07/14 16:10:39;;;;;;;1.95;0.70;;;;;;;29.88;20.88;97605.47;10463052;28;20048;-76
2023/07/14 16:16:00;;;;;;;1.73;0.68;;;;;;;29.60;21.25;97603.63;10490411;28;20064;-75
2023/07/14 16:21:25;;;;;;;5.95;0.68;;;;;;;29.46;21.60;97601.59;10490074;28;20098;-76
2023/07/14 16:26:47;;;;;;;3.55;0.70;;;;;;;29.41;21.77;97594.44;10489751;28;20106;-76
2023/07/14 16:32:12;;;;;;;3.88;1.05;;;;;;;29.13;21.68;97589.66;10476689;28;20045;-76
2023/07/14 16:37:36;;;;;;;4.53;0.80;;;;;;;28.99;21.77;97579.00;10476421;28;20379;-76
2023/07/14 16:42:57;;;;;;;2.03;0.70;;;;;;;29.00;21.84;97568.94;10447726;28;20474;-76
2023/07/14 16:48:19;;;;;;;5.30;0.80;;;;;;;29.12;21.75;97562.38;10475344;28;20044;-76
2023/07/14 16:53:40;;;;;;;2.35;0.65;;;;;;;29.02;22.08;97568.22;10488883;28;20406;-76
2023/07/14 16:59:01;;;;;;;2.15;0.60;;;;;;;28.99;22.14;97576.13;10461211;28;20071;-76
2023/07/14 17:04:25;;;;;;;3.05;0.75;;;;;;;28.85;21.97;97566.88;10474153;28;20060;-76
2023/07/14 17:09:46;;;;;;;2.38;0.80;;;;;;;28.60;22.29;97541.22;10460935;28;20051;-77
2023/07/14 17:15:08;;;;;;;1.65;0.65;;;;;;;28.32;22.86;97532.81;10460192;28;20466;-76
2023/07/14 17:20:29;;;;;;;1.63;0.65;;;;;;;28.14;23.37;97531.44;10460320;28;20096;-76
2023/07/14 17:25:51;;;;;;;5.00;0.87;;;;;;;28.17;23.28;97529.25;10474184;28;20041;-77
2023/07/14 17:31:12;;;;;;;3.60;0.80;;;;;;;28.21;23.41;97537.88;10487586;28;20037;-76
2023/07/14 17:36:34;;;;;;;4.30;1.13;;;;;;;28.21;23.19;97532.84;10473457;28;20394;-76
2023/07/14 17:41:55;;;;;;;3.07;0.70;;;;;;;28.07;23.47;97526.44;10459548;28;20051;-76
2023/07/14 17:47:18;;;;;;;2.87;0.70;;;;;;;28.07;23.34;97524.28;10473056;28;20119;-76
2023/07/14 17:52:39;;;;;;;1.92;0.90;;;;;;;28.14;23.43;97519.97;10473060;28;20036;-76
2023/07/14 17:58:00;;;;;;;3.70;0.90;;;;;;;28.09;23.65;97512.81;10472733;28;20438;-76
2023/07/14 18:03:23;;;;;;;2.28;1.10;;;;;;;27.82;23.90;97503.63;10458941;28;20052;-76
2023/07/14 18:08:44;;;;;;;4.90;1.10;;;;;;;27.52;24.66;97501.59;10500892;28;20095;-77
2023/07/14 18:14:05;;;;;;;3.22;1.00;;;;;;;27.25;25.06;97508.81;10485724;28;20398;-76
2023/07/14 18:19:28;;;;;;;4.88;0.80;;;;;;;27.09;25.01;97516.00;10485466;28;20494;-76
2023/07/14 18:24:49;;;;;;;1.67;0.70;;;;;;;26.95;25.50;97506.69;10457205;28;20047;-76
2023/07/14 18:30:19;;;;;;;3.38;1.00;;;;;;;26.79;25.92;97508.13;10471269;28;20560;-77
2023/07/14 18:35:40;;;;;;;8.18;1.38;;;;;;;26.67;26.12;97505.28;10457105;28;20047;-76
2023/07/14 18:41:04;;;;;;;6.75;1.20;;;;;;;26.53;26.39;97505.97;10499603;28;20478;-77
2023/07/14 18:46:25;;;;;;;5.00;1.33;;;;;;;26.34;26.39;97507.34;10443435;28;20473;-76
2023/07/14 18:51:46;;;;;;;3.08;1.20;;;;;;;26.19;27.06;97509.50;10470249;28;20064;-76
2023/07/14 18:57:14;;;;;;;4.30;1.10;;;;;;;26.04;27.29;97513.00;10470273;28;20048;-76
2023/07/14 19:02:37;;;;;;;3.92;1.10;;;;;;;25.90;27.33;97511.56;10470085;28;20387;-75
2023/07/14 19:07:58;;;;;;;3.80;1.00;;;;;;;25.70;27.90;97502.91;10456488;28;20044;-75
2023/07/14 19:13:18;;;;;;;2.63;1.20;;;;;;;25.54;28.38;97511.38;10469342;28;20119;-75
2023/07/14 19:18:39;;;;;;;5.72;1.08;;;;;;;25.35;28.59;97508.41;10469450;28;20474;-77
2023/07/14 19:24:00;;;;;;;4.82;1.25;;;;;;;25.20;29.27;97518.34;10469270;28;20045;-78
2023/07/14 19:29:26;;;;;;;3.72;1.10;;;;;;;25.06;29.33;97521.09;10482836;28;20043;-77
2023/07/14 19:34:49;;;;;;;3.05;1.42;;;;;;;24.89;29.67;97508.81;10483532;28;20127;-75
2023/07/14 19:40:28;;;;;;;;;;;;;;;24.78;29.98;97521.56;10455776;28;20071;-78
2023/07/14 19:45:49;;;;;;;5.57;1.20;;;;;;;24.64;30.65;97510.78;10482347;28;20019;-75
2023/07/14 19:51:22;;;;;;;3.90;1.00;;;;;;;24.52;31.00;97513.53;10468589;28;20068;-75
2023/07/14 19:56:43;;;;;;;3.60;0.93;;;;;;;24.44;31.51;97524.88;10497377;28;20049;-75
2023/07/14 20:02:19;;;;;;;4.28;1.10;;;;;;;24.35;31.58;97514.78;10454521;28;20124;-75
2023/07/14 20:07:43;;;;;;;5.78;1.27;;;;;;;24.31;31.92;97518.31;10442310;28;20455;-75
2023/07/14 20:13:24;;;;;;;5.72;1.27;;;;;;;24.18;32.06;97517.44;10455457;28;20487;-75
2023/07/14 20:18:46;;;;;;;7.05;1.25;;;;;;;24.11;31.91;97527.34;10428375;28;20495;-75
2023/07/14 20:24:13;;;;;;;2.92;1.05;;;;;;;23.96;32.36;97508.66;10412748;28;20068;-76
2023/07/14 20:29:33;;;;;;;4.70;1.02;;;;;;;23.88;32.51;97509.28;10426900;28;20179;-75
2023/07/14 20:35:00;;;;;;;2.63;1.02;;;;;;;23.76;33.00;97517.69;10440539;28;20117;-76
2023/07/14 20:40:21;;;;;;;2.42;1.00;;;;;;;23.63;33.24;97508.28;10441037;28;20116;-76
2023/07/14 20:45:42;;;;;;;2.50;1.13;;;;;;;23.52;33.31;97508.81;10440500;28;20097;-75
2023/07/14 20:51:04;;;;;;;9.40;1.45;;;;;;;23.39;33.99;97511.50;10418757;28;20056;-74
2023/07/14 20:56:25;;;;;;;3.23;1.30;;;;;;;23.36;33.98;97506.50;10447667;28;20072;-76
2023/07/14 21:01:46;;;;;;;1.70;0.93;;;;;;;23.30;33.73;97512.09;10447379;28;20495;-75
2023/07/14 21:07:14;;;;;;;4.50;1.25;;;;;;;23.22;34.09;97506.28;10500347;28;20072;-75
2023/07/14 21:12:35;;;;;;;3.25;1.30;;;;;;;23.07;34.25;97514.63;10474281;28;20051;-76
2023/07/14 21:17:56;;;;;;;2.60;1.30;;;;;;;22.99;34.60;97517.34;10460268;28;20120;-76
2023/07/14 21:23:22;;;;;;;3.85;1.13;;;;;;;22.88;34.98;97512.91;10473782;28;20040;-74
2023/07/14 21:28:43;;;;;;;4.15;1.20;;;;;;;22.80;34.91;97504.22;10473870;28;20064;-76
2023/07/14 21:34:11;;;;;;;4.15;1.40;;;;;;;22.72;35.26;97521.16;10473576;28;20044;-75
2023/07/14 21:39:33;;;;;;;4.18;1.63;;;;;;;22.59;35.66;97516.69;10460144;28;20041;-75
2023/07/14 21:44:54;;;;;;;5.93;1.10;;;;;;;22.50;35.90;97512.97;10487131;28;20060;-76
2023/07/14 21:50:15;;;;;;;2.90;1.30;;;;;;;22.39;36.02;97525.56;10486828;28;20051;-75
2023/07/14 21:55:36;;;;;;;4.28;1.52;;;;;;;22.32;36.36;97521.19;10472611;28;20064;-75
2023/07/14 22:00:58;;;;;;;3.15;1.38;;;;;;;22.29;36.50;97520.41;10472529;28;20581;-75
2023/07/14 22:06:18;;;;;;;4.15;1.17;;;;;;;22.24;36.82;97516.78;10485656;28;20128;-75
2023/07/14 22:11:39;;;;;;;4.43;1.20;;;;;;;22.21;36.96;97517.44;10472037;28;20060;-75
2023/07/14 22:17:01;;;;;;;8.68;1.38;;;;;;;22.10;36.81;97518.66;10458000;28;20068;-75
2023/07/14 22:22:21;;;;;;;4.53;1.13;;;;;;;21.99;37.02;97514.88;10471634;28;20115;-75
2023/07/14 22:27:43;;;;;;;1.63;0.80;;;;;;;21.92;37.33;97522.56;10485159;28;20067;-75
2023/07/14 22:33:25;;;;;;;3.47;0.98;;;;;;;21.89;37.46;97528.88;10499697;28;20433;-75
2023/07/14 22:38:46;;;;;;;2.20;0.88;;;;;;;21.90;37.47;97527.47;10472951;28;20052;-75
2023/07/14 22:44:09;;;;;;;4.43;1.05;;;;;;;21.87;37.41;97535.25;10457198;28;20116;-75
2023/07/14 22:49:29;;;;;;;1.97;1.17;;;;;;;21.83;37.23;97525.94;10470725;28;20529;-74
2023/07/14 22:54:50;;;;;;;4.35;1.15;;;;;;;21.79;37.98;97528.69;10484459;28;20075;-75
2023/07/14 23:00:12;;;;;;;4.32;1.50;;;;;;;21.75;37.79;97520.81;10483822;28;20119;-75
2023/07/14 23:05:33;;;;;;;4.70;1.20;;;;;;;21.69;37.79;97523.50;10498731;28;20129;-75
2023/07/14 23:10:58;;;;;;;2.15;1.00;;;;;;;21.62;38.03;97524.81;10455404;28;20274;-76
2023/07/14 23:16:19;;;;;;;8.75;1.30;;;;;;;21.53;38.14;97521.09;10469877;28;20048;-74
2023/07/14 23:21:40;;;;;;;2.75;0.85;;;;;;;21.47;38.35;97525.91;10455768;28;20171;-75
2023/07/14 23:27:01;;;;;;;6.10;1.17;;;;;;;21.39;38.74;97518.66;10455589;28;20194;-75
2023/07/14 23:32:21;;;;;;;2.95;1.20;;;;;;;21.31;38.88;97509.94;10468987;28;20075;-75
2023/07/14 23:37:42;;;;;;;3.05;1.05;;;;;;;21.25;38.92;97521.16;10482877;28;20072;-75
2023/07/14 23:43:06;;;;;;;3.70;1.10;;;;;;;21.18;39.00;97508.22;10468924;28;20068;-75
2023/07/14 23:48:26;;;;;;;2.85;1.13;;;;;;;21.11;39.25;97500.97;10469004;28;20191;-76
2023/07/14 23:53:47;;;;;;;4.25;1.52;;;;;;;21.03;39.58;97500.78;10468675;28;20064;-75
2023/07/14 23:59:10;;;;;;;5.63;1.50;;;;;;;20.95;39.99;97503.47;10468653;28;20094;-75
